Time;durP1;ratioP1;P1;durP2;ratioP2;P2;SDS_P1;SDS_P2;PMS_P1;PMS_P2;Temp;Humidity;BMP_temperature;BMP_pressure;BME280_temperature;BME280_humidity;BME280_pressure;Samples;Min_cycle;Max_cycle;Signal;HPM_P1;HPM_P2
2023/03/23 00:00:59;;;;;;;4.93;3.67;;;12.20;99.90;;;;;;5051113;28;20807;-77
2023/03/23 00:03:26;;;;;;;5.57;3.60;;;12.20;99.90;;;;;;5052184;28;20460;-77
2023/03/23 00:05:51;;;;;;;5.50;3.60;;;12.20;99.90;;;;;;5055751;28;20189;-78
2023/03/23 00:08:23;;;;;;;3.80;3.30;;;12.20;99.90;;;;;;5053660;28;20420;-77
2023/03/23 00:10:56;;;;;;;5.97;3.17;;;12.20;99.90;;;;;;5052271;28;20515;-78
2023/03/23 00:13:23;;;;;;;4.70;3.50;;;12.20;99.90;;;;;;5052587;28;21063;-77
2023/03/23 00:15:49;;;;;;;3.73;2.77;;;12.20;99.90;;;;;;5052912;28;20440;-77
2023/03/23 00:18:21;;;;;;;4.13;3.13;;;12.10;99.90;;;;;;5052272;28;20784;-77
2023/03/23 00:20:56;;;;;;;4.63;3.37;;;12.10;99.90;;;;;;5052146;28;20539;-77
2023/03/23 00:23:24;;;;;;;5.20;3.43;;;12.20;99.90;;;;;;5051826;28;20995;-78
2023/03/23 00:25:58;;;;;;;5.80;3.93;;;12.20;99.90;;;;;;5051027;28;20769;-78
2023/03/23 00:28:26;;;;;;;6.70;3.60;;;12.20;99.90;;;;;;5052363;28;20494;-78
2023/03/23 00:30:59;;;;;;;4.57;2.87;;;12.20;99.90;;;;;;5052593;28;20412;-77
2023/03/23 00:33:26;;;;;;;3.47;3.13;;;12.20;99.90;;;;;;5051129;28;20432;-78
2023/03/23 00:35:53;;;;;;;5.63;3.07;;;12.20;99.90;;;;;;5051694;28;20416;-77
2023/03/23 00:38:23;;;;;;;4.00;2.87;;;12.10;99.90;;;;;;5057361;28;20426;-78
2023/03/23 00:40:49;;;;;;;3.27;2.60;;;12.10;99.90;;;;;;5073000;28;20412;-78
2023/03/23 00:43:16;;;;;;;3.90;3.00;;;12.10;99.90;;;;;;5071933;28;20431;-78
2023/03/23 00:45:52;;;;;;;4.30;3.30;;;12.10;99.90;;;;;;5072764;28;20411;-77
2023/03/23 00:48:22;;;;;;;3.13;2.77;;;12.10;99.90;;;;;;5072135;28;20459;-77
2023/03/23 00:50:49;;;;;;;4.90;2.53;;;12.10;99.90;;;;;;5072227;28;20494;-77
2023/03/23 00:53:16;;;;;;;2.63;2.43;;;12.10;99.90;;;;;;5071933;28;20435;-78
2023/03/23 00:55:46;;;;;;;3.23;2.90;;;12.20;99.90;;;;;;5071404;28;20412;-78
2023/03/23 00:58:12;;;;;;;3.30;3.00;;;12.20;99.90;;;;;;5070694;28;20414;-78
2023/03/23 01:00:39;;;;;;;4.60;2.60;;;12.20;99.90;;;;;;5071693;28;20423;-78
2023/03/23 01:03:06;;;;;;;2.53;2.33;;;12.20;99.90;;;;;;5070338;28;20433;-77
2023/03/23 01:05:36;;;;;;;2.50;2.30;;;12.20;99.90;;;;;;5071913;28;20414;-78
2023/03/23 01:08:03;;;;;;;2.50;2.30;;;12.30;99.90;;;;;;5070652;28;20496;-78
2023/03/23 01:10:32;;;;;;;3.33;2.20;;;12.20;99.90;;;;;;5070363;28;20416;-77
2023/03/23 01:13:01;;;;;;;3.30;2.40;;;12.20;99.90;;;;;;5070191;28;20427;-77
2023/03/23 01:15:28;;;;;;;3.00;2.70;;;12.30;99.90;;;;;;5072255;28;20423;-77
2023/03/23 01:17:54;;;;;;;3.00;2.63;;;12.30;99.90;;;;;;5070922;28;20419;-77
2023/03/23 01:20:20;;;;;;;3.57;2.53;;;12.30;99.90;;;;;;5046717;28;20836;-77
2023/03/23 01:22:46;;;;;;;3.30;2.60;;;12.20;99.90;;;;;;5048628;28;20499;-78
2023/03/23 01:25:13;;;;;;;4.17;2.20;;;12.20;99.90;;;;;;5047908;28;20896;-78
2023/03/23 01:27:40;;;;;;;2.50;2.27;;;12.20;99.90;;;;;;5049988;28;20209;-78
2023/03/23 01:30:07;;;;;;;4.43;2.53;;;12.20;99.90;;;;;;5048770;28;20415;-78
2023/03/23 01:32:33;;;;;;;5.53;2.13;;;12.20;99.90;;;;;;5050011;28;20893;-77
2023/03/23 01:34:59;;;;;;;2.60;2.30;;;12.20;99.90;;;;;;5048286;28;20451;-77
2023/03/23 01:37:26;;;;;;;3.30;2.70;;;12.20;99.90;;;;;;5049669;28;20764;-77
2023/03/23 01:39:55;;;;;;;2.53;2.30;;;12.20;99.90;;;;;;5067855;28;20181;-79
2023/03/23 01:42:30;;;;;;;3.10;2.37;;;12.20;99.90;;;;;;5069881;28;20450;-77
2023/03/23 01:45:14;;;;;;;2.93;2.50;;;12.20;99.90;;;;;;5068382;28;20466;-78
2023/03/23 01:47:40;;;;;;;4.30;2.40;;;12.20;99.90;;;;;;5069486;28;20498;-77
2023/03/23 01:50:06;;;;;;;4.60;2.43;;;12.20;99.90;;;;;;5069230;28;20495;-78
2023/03/23 01:52:33;;;;;;;2.60;2.30;;;12.20;99.90;;;;;;5069518;28;20223;-79
2023/03/23 01:55:00;;;;;;;2.67;2.37;;;12.20;99.90;;;;;;5069054;28;20838;-77
2023/03/23 01:57:26;;;;;;;3.10;2.33;;;12.20;99.90;;;;;;5051394;28;20844;-77
2023/03/23 01:59:54;;;;;;;2.73;2.27;;;12.20;99.90;;;;;;5070115;28;20451;-77
2023/03/23 02:02:22;;;;;;;2.77;2.40;;;12.20;99.90;;;;;;5070384;28;20420;-78
2023/03/23 02:04:48;;;;;;;2.50;2.30;;;12.20;99.90;;;;;;5069369;28;20851;-78
2023/03/23 02:07:17;;;;;;;2.20;2.00;;;12.20;99.90;;;;;;5069303;28;20608;-79
2023/03/23 02:09:42;;;;;;;5.73;2.87;;;12.20;99.90;;;;;;5068910;28;20415;-78
2023/03/23 02:12:08;;;;;;;2.63;2.10;;;12.10;99.90;;;;;;5067760;28;20431;-78
2023/03/23 02:14:34;;;;;;;3.43;2.37;;;12.10;99.90;;;;;;5050686;28;20215;-77
2023/03/23 02:17:21;;;;;;;2.50;2.30;;;12.10;99.90;;;;;;5068869;28;20541;-78
2023/03/23 02:20:18;;;;;;;3.83;2.50;;;12.10;99.90;;;;;;5068105;28;20523;-78
2023/03/23 02:22:50;;;;;;;3.17;2.70;;;12.10;99.90;;;;;;5047304;28;20459;-78
2023/03/23 02:25:35;;;;;;;3.00;2.70;;;12.10;99.90;;;;;;5048400;28;20487;-78
2023/03/23 02:28:39;;;;;;;3.03;2.33;;;12.10;99.90;;;;;;5048616;28;20462;-77
2023/03/23 02:31:38;;;;;;;4.23;2.57;;;12.10;99.90;;;;;;5046612;28;20408;-78
2023/03/23 02:34:27;;;;;;;3.13;2.77;;;12.10;99.90;;;;;;5048336;28;20439;-79
2023/03/23 02:37:00;;;;;;;3.30;2.60;;;12.10;99.90;;;;;;5029850;28;20412;-78
2023/03/23 02:39:42;;;;;;;2.70;2.30;;;12.10;99.90;;;;;;5061925;28;20852;-78
2023/03/23 02:42:09;;;;;;;3.60;2.63;;;12.10;99.90;;;;;;5068660;28;20995;-78
2023/03/23 02:44:40;;;;;;;2.67;2.43;;;12.10;99.90;;;;;;5066869;28;20983;-78
2023/03/23 02:47:11;;;;;;;5.00;2.70;;;12.20;99.90;;;;;;5068570;28;20412;-78
2023/03/23 02:49:40;;;;;;;2.87;2.63;;;12.10;99.90;;;;;;5068416;28;20415;-78
2023/03/23 02:52:13;;;;;;;4.50;3.10;;;12.10;99.90;;;;;;5067162;28;20419;-78
2023/03/23 02:54:42;;;;;;;2.80;2.60;;;12.10;99.90;;;;;;5068036;28;20481;-78
2023/03/23 02:57:09;;;;;;;3.10;2.67;;;12.10;99.90;;;;;;5068222;28;20453;-78
2023/03/23 02:59:35;;;;;;;4.17;2.90;;;12.10;99.90;;;;;;5066994;28;20477;-77
2023/03/23 03:02:09;;;;;;;3.00;2.63;;;12.10;99.90;;;;;;5068500;28;20423;-78
2023/03/23 03:04:40;;;;;;;4.43;2.43;;;12.10;99.90;;;;;;5068039;28;20205;-77
2023/03/23 03:07:35;;;;;;;2.83;2.50;;;12.10;99.90;;;;;;5068225;28;20438;-77
2023/03/23 03:10:19;;;;;;;2.80;2.53;;;12.10;99.90;;;;;;5066795;28;20912;-78
2023/03/23 03:12:58;;;;;;;2.83;2.50;;;12.10;99.90;;;;;;5068182;28;21284;-77
2023/03/23 03:15:32;;;;;;;3.57;2.30;;;12.10;99.90;;;;;;5068100;28;20442;-78
2023/03/23 03:18:24;;;;;;;2.50;2.30;;;12.10;99.90;;;;;;5068250;28;20683;-78
2023/03/23 03:20:56;;;;;;;2.50;2.30;;;12.10;99.90;;;;;;5057330;28;20428;-77
2023/03/23 03:23:24;;;;;;;3.70;2.30;;;12.10;99.90;;;;;;5030146;28;20454;-78
2023/03/23 03:25:51;;;;;;;2.90;2.60;;;12.00;99.90;;;;;;5046921;28;20516;-77
2023/03/23 03:28:21;;;;;;;2.47;2.20;;;12.10;99.90;;;;;;5030152;28;20853;-78
2023/03/23 03:30:53;;;;;;;2.80;2.57;;;12.00;99.90;;;;;;5046721;28;20499;-77
2023/03/23 03:33:20;;;;;;;2.80;2.50;;;12.00;99.90;;;;;;5047911;28;20531;-78
2023/03/23 03:35:47;;;;;;;2.50;2.30;;;12.00;99.90;;;;;;5046895;28;20401;-77
2023/03/23 03:38:13;;;;;;;2.30;2.10;;;12.00;99.90;;;;;;5052627;28;20492;-77
2023/03/23 03:40:39;;;;;;;3.17;2.40;;;12.10;99.90;;;;;;5066650;28;20919;-77
2023/03/23 03:43:07;;;;;;;2.23;2.03;;;12.00;99.90;;;;;;5067667;28;20184;-77
2023/03/23 03:45:33;;;;;;;2.37;2.10;;;12.00;99.90;;;;;;5067812;28;20494;-78
2023/03/23 03:48:00;;;;;;;2.40;2.00;;;12.00;99.90;;;;;;5068467;28;20412;-78
2023/03/23 03:50:26;;;;;;;1.90;1.70;;;12.00;99.90;;;;;;5070131;28;20425;-78
2023/03/23 03:52:52;;;;;;;3.47;1.97;;;12.00;99.90;;;;;;5071496;28;20415;-79
2023/03/23 03:55:18;;;;;;;2.40;2.00;;;12.00;99.90;;;;;;5071430;28;20522;-78
2023/03/23 03:57:43;;;;;;;2.83;2.20;;;12.10;99.90;;;;;;5053375;28;20490;-78
2023/03/23 04:00:14;;;;;;;3.67;2.13;;;12.10;99.90;;;;;;5053312;28;20550;-78
2023/03/23 04:02:47;;;;;;;3.00;1.90;;;12.10;99.90;;;;;;5070346;28;20188;-78
2023/03/23 04:05:13;;;;;;;2.00;1.87;;;12.10;99.90;;;;;;5069726;28;20459;-78
2023/03/23 04:07:39;;;;;;;4.57;2.50;;;12.10;99.90;;;;;;5069963;28;20742;-78
2023/03/23 04:10:10;;;;;;;2.70;2.00;;;12.10;99.90;;;;;;5071047;28;20412;-78
2023/03/23 04:12:37;;;;;;;2.57;2.37;;;12.10;99.90;;;;;;5069953;28;20802;-78
2023/03/23 04:15:03;;;;;;;2.67;2.10;;;12.10;99.90;;;;;;5070847;28;20442;-78
2023/03/23 04:17:29;;;;;;;3.07;2.57;;;12.10;99.90;;;;;;5070848;28;20415;-77
2023/03/23 04:19:59;;;;;;;2.50;2.17;;;12.10;99.90;;;;;;5067802;28;20431;-78
2023/03/23 04:22:29;;;;;;;2.50;2.30;;;12.20;99.90;;;;;;5050998;28;20182;-77
2023/03/23 04:24:58;;;;;;;2.93;2.50;;;12.10;99.90;;;;;;5050712;28;20507;-77
2023/03/23 04:27:24;;;;;;;3.60;2.20;;;12.10;99.90;;;;;;5032122;28;20415;-78
2023/03/23 04:29:50;;;;;;;2.50;2.10;;;12.10;99.90;;;;;;5049657;28;20421;-78
2023/03/23 04:32:17;;;;;;;2.47;2.20;;;12.10;99.90;;;;;;5033245;28;20428;-78
2023/03/23 04:34:44;;;;;;;3.27;2.30;;;12.10;99.90;;;;;;5050510;28;20685;-78
2023/03/23 04:37:10;;;;;;;2.50;1.97;;;12.00;99.90;;;;;;5050541;28;20405;-78
2023/03/23 04:39:35;;;;;;;2.60;2.40;;;12.10;99.90;;;;;;5066619;28;20912;-77
2023/03/23 04:42:01;;;;;;;2.47;2.27;;;12.00;99.90;;;;;;5070738;28;20411;-77
2023/03/23 04:44:29;;;;;;;3.57;2.30;;;12.00;99.90;;;;;;5070301;28;20270;-77
2023/03/23 04:46:54;;;;;;;2.77;2.57;;;12.00;99.90;;;;;;5070280;28;20818;-77
2023/03/23 04:49:20;;;;;;;2.30;2.10;;;12.00;99.90;;;;;;5052581;28;20424;-77
2023/03/23 04:51:46;;;;;;;1.73;1.40;;;12.10;99.90;;;;;;5070468;28;20225;-78
2023/03/23 04:54:12;;;;;;;2.50;2.10;;;12.10;99.90;;;;;;5070345;28;20514;-78
2023/03/23 04:56:38;;;;;;;4.07;2.33;;;12.00;99.90;;;;;;5068963;28;20498;-78
2023/03/23 04:59:06;;;;;;;2.50;2.07;;;12.00;99.90;;;;;;5051774;28;20203;-77
2023/03/23 05:01:33;;;;;;;2.60;2.40;;;12.10;99.90;;;;;;5069455;28;20180;-77
2023/03/23 05:04:00;;;;;;;2.40;1.60;;;12.10;99.90;;;;;;5068623;28;20804;-78
2023/03/23 05:06:25;;;;;;;3.73;2.10;;;12.10;99.90;;;;;;5070184;28;20977;-78
2023/03/23 05:08:51;;;;;;;2.03;1.83;;;12.10;99.90;;;;;;5070028;28;20403;-78
2023/03/23 05:11:17;;;;;;;2.93;2.40;;;12.10;99.90;;;;;;5069746;28;20173;-79
2023/03/23 05:13:44;;;;;;;2.30;2.10;;;12.10;99.90;;;;;;5069597;28;20217;-78
2023/03/23 05:16:09;;;;;;;2.43;2.23;;;12.10;99.90;;;;;;5070151;28;20168;-77
2023/03/23 05:18:35;;;;;;;2.80;2.20;;;12.10;99.90;;;;;;5069674;28;20453;-77
2023/03/23 05:21:02;;;;;;;2.20;1.97;;;12.10;99.90;;;;;;5058874;28;20189;-78
2023/03/23 05:23:33;;;;;;;2.60;1.97;;;12.10;99.90;;;;;;5048233;28;20482;-77
2023/03/23 05:26:02;;;;;;;2.20;2.00;;;12.10;99.90;;;;;;5049839;28;20909;-78
2023/03/23 05:28:30;;;;;;;2.07;1.83;;;12.10;99.90;;;;;;5049689;28;20502;-78
2023/03/23 05:30:56;;;;;;;4.17;2.20;;;12.10;99.90;;;;;;5049611;28;20761;-77
2023/03/23 05:33:22;;;;;;;3.60;1.80;;;12.20;99.90;;;;;;5049285;28;20884;-74
2023/03/23 05:35:48;;;;;;;2.73;2.10;;;12.10;99.90;;;;;;5047062;28;20540;-74
2023/03/23 05:38:16;;;;;;;2.50;2.03;;;12.10;99.90;;;;;;5047539;28;20449;-74
2023/03/23 05:40:42;;;;;;;2.20;1.97;;;12.20;99.90;;;;;;5048752;28;20905;-74
2023/03/23 05:43:09;;;;;;;2.93;2.40;;;12.20;99.90;;;;;;5048557;28;20848;-73
2023/03/23 05:45:34;;;;;;;2.30;2.10;;;12.20;99.90;;;;;;5049370;28;20459;-73
2023/03/23 05:48:00;;;;;;;2.90;2.20;;;12.10;99.90;;;;;;5048911;28;20408;-75
2023/03/23 05:50:27;;;;;;;4.30;1.90;;;12.20;99.90;;;;;;5048937;28;20180;-73
2023/03/23 05:52:55;;;;;;;2.07;1.93;;;12.20;99.90;;;;;;5049702;28;20423;-77
2023/03/23 05:55:21;;;;;;;1.80;1.70;;;12.20;99.90;;;;;;5050062;28;20409;-76
2023/03/23 05:57:47;;;;;;;3.10;2.40;;;12.20;99.90;;;;;;5048470;28;20467;-77
2023/03/23 06:00:19;;;;;;;3.50;2.20;;;12.20;99.90;;;;;;5049937;28;20444;-76
2023/03/23 06:02:49;;;;;;;2.80;2.53;;;12.20;99.90;;;;;;5049885;28;20427;-78
2023/03/23 06:05:15;;;;;;;2.60;1.97;;;12.20;99.90;;;;;;5049741;28;20452;-77
2023/03/23 06:07:42;;;;;;;2.47;2.07;;;12.20;99.90;;;;;;5049416;28;20429;-78
2023/03/23 06:10:08;;;;;;;3.27;2.27;;;12.20;99.90;;;;;;5049889;28;20786;-77
2023/03/23 06:12:35;;;;;;;3.03;2.73;;;12.20;99.90;;;;;;5048138;28;20482;-78
2023/03/23 06:15:02;;;;;;;2.83;2.63;;;12.20;99.90;;;;;;5049620;28;20440;-77
2023/03/23 06:17:28;;;;;;;2.93;2.40;;;12.20;99.90;;;;;;5047732;28;20511;-77
2023/03/23 06:19:54;;;;;;;2.50;2.30;;;12.20;99.90;;;;;;5048585;28;20973;-78
2023/03/23 06:22:20;;;;;;;3.40;2.30;;;12.20;99.90;;;;;;5049967;28;20181;-78
2023/03/23 06:24:47;;;;;;;3.13;2.30;;;12.20;99.90;;;;;;5049400;28;20256;-77
2023/03/23 06:27:13;;;;;;;2.53;2.33;;;12.20;99.90;;;;;;5049109;28;20444;-78
2023/03/23 06:29:39;;;;;;;2.10;1.90;;;12.20;99.90;;;;;;5049494;28;20421;-77
2023/03/23 06:32:05;;;;;;;3.00;2.70;;;12.30;99.90;;;;;;5047519;28;20432;-77
2023/03/23 06:34:32;;;;;;;2.70;2.50;;;12.30;99.90;;;;;;5047238;28;20443;-79
2023/03/23 06:36:58;;;;;;;4.53;2.57;;;12.30;99.90;;;;;;5047960;28;20658;-77
2023/03/23 06:39:24;;;;;;;2.30;2.03;;;12.30;99.90;;;;;;5048121;28;20426;-77
2023/03/23 06:41:50;;;;;;;2.43;2.23;;;12.30;99.90;;;;;;5049444;28;20968;-77
2023/03/23 06:44:16;;;;;;;3.30;2.53;;;12.40;99.90;;;;;;5049116;28;20460;-77
2023/03/23 06:46:42;;;;;;;3.97;2.37;;;12.40;99.90;;;;;;5048365;28;20404;-77
2023/03/23 06:49:08;;;;;;;4.90;2.50;;;12.40;99.90;;;;;;5047746;28;20212;-78
2023/03/23 06:51:35;;;;;;;2.77;2.43;;;12.40;99.90;;;;;;5049537;28;20503;-76
2023/03/23 06:54:00;;;;;;;3.57;2.83;;;12.40;99.90;;;;;;5049243;28;20447;-77
2023/03/23 06:56:26;;;;;;;3.90;2.30;;;12.40;99.90;;;;;;5048337;28;20446;-77
2023/03/23 06:58:52;;;;;;;2.80;1.80;;;12.40;99.90;;;;;;5032440;28;20188;-78
2023/03/23 07:01:18;;;;;;;4.27;2.63;;;12.40;99.90;;;;;;5052109;28;20419;-78
2023/03/23 07:03:44;;;;;;;3.70;2.40;;;12.40;99.90;;;;;;5050497;28;20205;-77
2023/03/23 07:06:10;;;;;;;3.93;3.47;;;12.40;99.90;;;;;;5051259;28;20424;-78
2023/03/23 07:08:36;;;;;;;4.17;2.43;;;12.40;99.90;;;;;;5049877;28;20413;-77
2023/03/23 07:11:03;;;;;;;3.57;2.47;;;12.40;99.90;;;;;;5031915;28;20484;-78
2023/03/23 07:13:29;;;;;;;3.50;2.20;;;12.40;99.90;;;;;;5047899;28;20554;-77
2023/03/23 07:15:54;;;;;;;3.90;2.27;;;12.40;99.90;;;;;;5049503;28;20499;-77
2023/03/23 07:18:21;;;;;;;4.03;2.73;;;12.50;99.90;;;;;;5048224;28;20540;-77
2023/03/23 07:20:50;;;;;;;3.33;2.23;;;12.50;99.90;;;;;;5049070;28;20170;-77
2023/03/23 07:23:17;;;;;;;6.30;2.47;;;12.50;99.90;;;;;;5050009;28;20424;-78
2023/03/23 07:25:43;;;;;;;2.80;1.80;;;12.50;99.90;;;;;;5051837;28;20904;-77
2023/03/23 07:28:09;;;;;;;2.47;2.20;;;12.50;99.90;;;;;;5051224;28;20404;-78
2023/03/23 07:30:35;;;;;;;3.83;2.40;;;12.50;99.90;;;;;;5034759;28;20412;-77
2023/03/23 07:33:05;;;;;;;4.70;2.50;;;12.50;99.90;;;;;;5052622;28;20178;-77
2023/03/23 07:35:31;;;;;;;2.70;1.90;;;12.50;99.90;;;;;;5051393;28;20264;-77
2023/03/23 07:37:57;;;;;;;5.83;2.27;;;12.50;99.90;;;;;;5054537;28;20416;-78
2023/03/23 07:40:23;;;;;;;2.93;1.70;;;12.50;99.90;;;;;;5071307;28;20921;-77
2023/03/23 07:42:54;;;;;;;7.17;2.77;;;12.50;99.90;;;;;;5070980;28;20399;-78
2023/03/23 07:45:21;;;;;;;4.83;1.83;;;12.50;99.90;;;;;;5072242;28;20209;-77
2023/03/23 07:47:47;;;;;;;6.00;2.23;;;12.50;99.90;;;;;;5067341;28;20408;-77
2023/03/23 07:50:13;;;;;;;6.50;1.83;;;12.50;99.90;;;;;;5048714;28;20427;-78
2023/03/23 07:52:41;;;;;;;3.47;1.93;;;12.60;99.90;;;;;;5050824;28;20412;-77
2023/03/23 07:55:09;;;;;;;5.87;2.20;;;12.50;99.90;;;;;;5050749;28;20893;-77
2023/03/23 07:57:35;;;;;;;2.50;1.50;;;12.60;99.90;;;;;;5052119;28;20835;-77
2023/03/23 08:00:03;;;;;;;3.20;2.00;;;12.60;99.90;;;;;;5052065;28;20915;-77
2023/03/23 08:02:31;;;;;;;2.83;1.70;;;12.60;99.90;;;;;;5050452;28;20424;-77
2023/03/23 08:05:00;;;;;;;3.00;2.00;;;12.60;99.90;;;;;;5050770;28;20567;-77
2023/03/23 08:07:26;;;;;;;4.80;1.63;;;12.70;99.90;;;;;;5051894;28;20496;-78
2023/03/23 08:09:52;;;;;;;2.50;1.83;;;12.70;99.90;;;;;;5049998;28;20432;-77
2023/03/23 08:12:17;;;;;;;5.57;2.70;;;12.70;99.90;;;;;;5050986;28;20242;-77
2023/03/23 08:14:43;;;;;;;4.87;2.00;;;12.70;99.90;;;;;;5052347;28;20236;-77
2023/03/23 08:17:09;;;;;;;2.60;1.87;;;12.70;99.90;;;;;;5053253;28;20236;-77
2023/03/23 08:19:36;;;;;;;3.60;1.83;;;12.70;99.90;;;;;;5052980;28;20173;-77
2023/03/23 08:22:05;;;;;;;4.33;1.97;;;12.70;99.90;;;;;;5052948;28;20421;-77
2023/03/23 08:24:32;;;;;;;5.03;1.83;;;12.70;99.90;;;;;;5051293;28;20456;-77
2023/03/23 08:26:59;;;;;;;2.10;1.53;;;12.70;99.90;;;;;;5052402;28;20519;-77
2023/03/23 08:29:25;;;;;;;2.97;1.60;;;12.70;99.90;;;;;;5052331;28;20965;-77
2023/03/23 08:31:51;;;;;;;3.07;1.70;;;12.80;99.90;;;;;;5051547;28;20412;-77
2023/03/23 08:34:17;;;;;;;2.00;1.70;;;12.80;99.90;;;;;;5051683;28;20443;-77
2023/03/23 08:36:44;;;;;;;3.20;1.83;;;12.80;99.90;;;;;;5051549;28;20415;-77
2023/03/23 08:39:10;;;;;;;3.20;1.70;;;12.80;99.90;;;;;;5053799;28;20181;-77
2023/03/23 08:41:36;;;;;;;2.53;1.90;;;12.80;99.90;;;;;;5051638;28;20423;-77
2023/03/23 08:44:03;;;;;;;2.10;1.70;;;12.80;99.90;;;;;;5050064;28;20460;-78
2023/03/23 08:46:28;;;;;;;3.50;2.07;;;12.90;99.90;;;;;;5050458;28;20169;-77
2023/03/23 08:48:54;;;;;;;3.53;1.53;;;12.90;99.90;;;;;;5033189;28;20499;-77
2023/03/23 08:51:20;;;;;;;4.80;2.10;;;12.80;99.90;;;;;;5045204;28;20229;-77
2023/03/23 08:53:46;;;;;;;3.50;1.80;;;12.90;99.90;;;;;;5056605;28;20205;-77
2023/03/23 08:56:13;;;;;;;3.00;1.60;;;12.90;99.90;;;;;;5041383;28;21173;-77
2023/03/23 08:58:39;;;;;;;2.97;1.93;;;13.00;99.90;;;;;;5053829;28;20550;-78
2023/03/23 09:01:07;;;;;;;3.10;1.73;;;13.00;99.90;;;;;;5043421;28;20486;-77
2023/03/23 09:03:34;;;;;;;3.83;1.60;;;13.00;99.90;;;;;;5049589;28;20501;-77
2023/03/23 09:06:06;;;;;;;3.70;2.00;;;13.00;99.90;;;;;;5039556;28;20414;-78
2023/03/23 09:08:32;;;;;;;1.77;1.50;;;13.00;99.90;;;;;;5035865;28;21099;-77
2023/03/23 09:11:07;;;;;;;2.83;1.50;;;13.00;99.90;;;;;;5051205;28;20412;-76
2023/03/23 09:13:34;;;;;;;2.97;1.50;;;13.10;99.90;;;;;;5051030;28;20530;-77
2023/03/23 09:16:01;;;;;;;4.70;2.07;;;13.10;99.90;;;;;;5051662;28;20412;-78
2023/03/23 09:18:27;;;;;;;6.63;2.10;;;13.10;99.90;;;;;;5048264;28;20830;-77
2023/03/23 09:20:54;;;;;;;3.87;1.67;;;13.10;99.90;;;;;;5038280;28;21106;-77
2023/03/23 09:23:20;;;;;;;3.83;1.70;;;13.10;99.90;;;;;;5031311;28;20932;-77
2023/03/23 09:25:46;;;;;;;4.03;2.20;;;13.10;99.90;;;;;;5031486;28;20860;-77
2023/03/23 09:28:13;;;;;;;3.13;1.40;;;13.20;99.90;;;;;;5031300;28;20413;-77
2023/03/23 09:30:40;;;;;;;6.10;2.20;;;13.10;99.90;;;;;;5035258;28;20412;-77
2023/03/23 09:33:07;;;;;;;3.87;1.50;;;13.10;99.90;;;;;;5049860;28;20416;-77
2023/03/23 09:35:35;;;;;;;4.03;1.70;;;13.20;99.90;;;;;;5049076;28;20446;-77
2023/03/23 09:38:01;;;;;;;3.47;1.80;;;13.20;99.90;;;;;;5048195;28;20485;-77
2023/03/23 09:40:48;;;;;;;4.77;2.10;;;13.20;99.90;;;;;;5050342;28;21058;-78
2023/03/23 09:43:26;;;;;;;5.53;1.53;;;13.20;99.90;;;;;;5051321;28;20859;-77
2023/03/23 09:45:58;;;;;;;5.77;1.80;;;13.20;99.90;;;;;;5040281;28;20412;-77
2023/03/23 09:48:47;;;;;;;3.67;1.60;;;13.20;99.90;;;;;;5049422;28;20400;-77
2023/03/23 09:51:45;;;;;;;3.60;1.93;;;13.30;99.90;;;;;;5052788;28;20905;-77
2023/03/23 09:54:27;;;;;;;6.00;2.00;;;13.30;99.90;;;;;;5048613;28;20448;-77
2023/03/23 09:56:54;;;;;;;2.87;1.50;;;13.30;99.90;;;;;;5046133;28;20412;-76
2023/03/23 09:59:36;;;;;;;2.63;1.70;;;13.30;99.90;;;;;;5046511;28;20436;-77
2023/03/23 10:02:27;;;;;;;4.53;2.10;;;13.30;99.90;;;;;;5045868;28;20439;-77
2023/03/23 10:04:56;;;;;;;5.70;1.87;;;13.40;99.90;;;;;;5043681;28;20460;-77
2023/03/23 10:07:27;;;;;;;2.70;1.70;;;13.30;99.90;;;;;;5048064;28;20424;-77
2023/03/23 10:09:57;;;;;;;3.80;2.00;;;13.40;99.90;;;;;;5042552;28;20495;-77
2023/03/23 10:12:50;;;;;;;6.50;2.10;;;13.30;99.90;;;;;;5036389;28;20805;-76
2023/03/23 10:15:32;;;;;;;4.53;1.90;;;13.30;99.90;;;;;;5047771;28;20427;-76
2023/03/23 10:18:41;;;;;;;4.57;2.03;;;13.30;99.90;;;;;;5046347;28;20452;-77
2023/03/23 10:21:16;;;;;;;6.20;1.90;;;13.30;99.90;;;;;;5025799;28;20455;-78
2023/03/23 10:23:54;;;;;;;3.93;2.07;;;13.20;99.90;;;;;;5009445;28;20459;-78
2023/03/23 10:26:38;;;;;;;3.87;2.10;;;13.20;99.90;;;;;;5040551;28;20473;-77
2023/03/23 10:29:06;;;;;;;2.47;1.50;;;13.20;99.90;;;;;;5048649;28;20452;-78
2023/03/23 10:31:58;;;;;;;4.23;1.23;;;13.10;99.90;;;;;;5047929;28;20480;-77
2023/03/23 10:34:41;;;;;;;2.23;1.73;;;13.00;99.90;;;;;;5047578;28;20907;-77
2023/03/23 10:37:18;;;;;;;1.77;0.80;;;13.00;99.90;;;;;;5042443;28;20427;-77
2023/03/23 10:39:56;;;;;;;2.37;1.27;;;12.80;99.90;;;;;;5048006;28;20458;-76
2023/03/23 10:42:29;;;;;;;3.00;1.07;;;12.80;99.90;;;;;;5049174;28;20423;-77
2023/03/23 10:44:57;;;;;;;1.53;1.03;;;12.70;99.90;;;;;;5048977;28;20491;-78
2023/03/23 10:47:24;;;;;;;2.17;1.47;;;12.60;99.90;;;;;;5048565;28;20807;-77
2023/03/23 10:49:54;;;;;;;2.70;1.43;;;12.60;99.90;;;;;;5048660;28;20412;-77
2023/03/23 10:52:41;;;;;;;3.47;1.70;;;12.60;99.90;;;;;;5049148;28;20469;-78
2023/03/23 10:55:10;;;;;;;2.20;1.60;;;12.60;99.90;;;;;;5048700;28;20443;-78
2023/03/23 10:57:39;;;;;;;3.63;1.53;;;12.50;99.90;;;;;;5045820;28;20436;-78
2023/03/23 11:00:26;;;;;;;2.83;1.70;;;12.50;99.90;;;;;;5052346;28;20848;-77
2023/03/23 11:03:02;;;;;;;3.00;2.10;;;12.40;99.90;;;;;;5044208;28;20420;-78
2023/03/23 11:05:33;;;;;;;3.07;1.97;;;12.40;99.90;;;;;;5048002;28;20459;-77
2023/03/23 11:08:01;;;;;;;5.20;2.70;;;12.40;99.90;;;;;;5052534;28;20423;-77
2023/03/23 11:10:39;;;;;;;3.03;2.40;;;12.30;99.90;;;;;;5051196;28;20446;-78
2023/03/23 11:13:10;;;;;;;3.80;3.10;;;12.30;99.90;;;;;;5045056;28;20446;-76
2023/03/23 11:15:41;;;;;;;3.17;2.83;;;12.30;99.90;;;;;;5050602;28;20479;-76
2023/03/23 11:18:11;;;;;;;2.90;2.70;;;12.30;99.90;;;;;;5052103;28;20450;-76
2023/03/23 11:20:41;;;;;;;7.27;4.13;;;12.40;99.90;;;;;;5052223;28;20469;-78
2023/03/23 11:23:26;;;;;;;3.43;2.73;;;12.30;99.90;;;;;;5049614;28;20440;-77
2023/03/23 11:26:20;;;;;;;2.97;2.60;;;12.30;99.90;;;;;;5043901;28;20419;-76
2023/03/23 11:28:58;;;;;;;4.60;3.03;;;12.30;99.90;;;;;;5041856;28;20483;-76
2023/03/23 11:31:33;;;;;;;4.77;3.67;;;12.20;99.90;;;;;;5048074;28;20864;-77
2023/03/23 11:34:30;;;;;;;3.83;3.53;;;12.20;99.90;;;;;;5050277;28;20788;-78
2023/03/23 11:37:05;;;;;;;4.60;4.03;;;12.10;99.90;;;;;;5052121;28;20419;-77
2023/03/23 11:39:34;;;;;;;4.60;4.20;;;12.10;99.90;;;;;;5071218;28;20503;-76
2023/03/23 11:42:11;;;;;;;9.80;6.53;;;12.20;99.90;;;;;;5043053;28;20427;-77
2023/03/23 11:44:44;;;;;;;4.30;3.90;;;12.10;99.90;;;;;;5041864;28;20468;-77
2023/03/23 11:47:16;;;;;;;4.83;3.20;;;12.10;99.90;;;;;;5048578;28;20404;-77
2023/03/23 11:49:47;;;;;;;3.30;3.00;;;12.10;99.90;;;;;;5044987;28;20417;-76
2023/03/23 11:52:21;;;;;;;4.27;3.20;;;12.10;99.90;;;;;;5051082;28;20436;-77
2023/03/23 11:54:57;;;;;;;3.83;2.40;;;12.10;99.90;;;;;;5046773;28;20633;-77
2023/03/23 11:57:24;;;;;;;3.10;2.40;;;12.10;99.90;;;;;;5049770;28;20424;-77
2023/03/23 11:59:49;;;;;;;4.07;2.03;;;12.10;99.90;;;;;;5050685;28;20413;-77
2023/03/23 12:02:36;;;;;;;1.70;1.47;;;12.10;99.90;;;;;;5052075;28;20416;-77
2023/03/23 12:05:23;;;;;;;3.53;1.80;;;12.00;99.90;;;;;;5052728;28;20261;-77
2023/03/23 12:07:57;;;;;;;1.47;1.37;;;12.10;99.90;;;;;;5045154;28;20435;-77
2023/03/23 12:10:24;;;;;;;2.17;1.20;;;12.10;99.90;;;;;;5043031;28;20500;-77
2023/03/23 12:13:09;;;;;;;1.47;1.03;;;12.00;99.90;;;;;;5042948;28;21203;-77
2023/03/23 12:16:27;;;;;;;2.83;1.20;;;12.00;99.90;;;;;;5047675;28;20520;-77
2023/03/23 12:19:27;;;;;;;2.60;1.10;;;12.00;99.90;;;;;;5051084;28;20421;-76
2023/03/23 12:22:29;;;;;;;2.27;1.10;;;12.10;99.90;;;;;;5048978;28;20420;-77
2023/03/23 12:25:06;;;;;;;1.97;1.20;;;12.10;99.90;;;;;;5004985;28;20465;-77
2023/03/23 12:27:42;;;;;;;2.20;1.20;;;12.20;99.90;;;;;;5030353;28;20928;-77
2023/03/23 12:30:20;;;;;;;2.27;1.57;;;12.20;99.90;;;;;;5047892;28;20420;-77
2023/03/23 12:32:54;;;;;;;2.37;1.30;;;12.10;99.90;;;;;;5043775;28;20443;-77
2023/03/23 12:35:48;;;;;;;2.43;1.30;;;12.10;99.90;;;;;;5030727;28;20436;-77
2023/03/23 12:38:36;;;;;;;1.43;1.03;;;12.10;99.90;;;;;;5040308;28;20924;-76
2023/03/23 12:41:12;;;;;;;4.63;1.70;;;12.10;99.90;;;;;;5049329;28;20481;-78
2023/03/23 12:43:46;;;;;;;1.63;1.50;;;12.10;99.90;;;;;;5047740;28;21157;-78
2023/03/23 12:46:33;;;;;;;2.80;1.67;;;12.10;99.90;;;;;;5048212;28;20482;-77
2023/03/23 12:49:02;;;;;;;4.33;1.63;;;12.10;99.90;;;;;;5047092;28;20501;-77
2023/03/23 12:51:47;;;;;;;3.43;1.83;;;12.10;99.90;;;;;;5043927;28;20440;-76
2023/03/23 12:54:35;;;;;;;2.13;1.63;;;12.10;99.90;;;;;;5049008;28;20450;-77
2023/03/23 12:57:07;;;;;;;2.67;1.70;;;12.10;99.90;;;;;;5046887;28;20503;-77
2023/03/23 12:59:38;;;;;;;1.80;1.60;;;12.10;99.90;;;;;;5047716;28;20404;-77
2023/03/23 13:02:28;;;;;;;2.70;1.60;;;12.00;99.90;;;;;;5049365;28;20428;-77
2023/03/23 13:05:23;;;;;;;4.13;1.40;;;12.10;99.90;;;;;;5033194;28;20467;-77
2023/03/23 13:08:01;;;;;;;2.00;1.90;;;12.10;99.90;;;;;;5039123;28;20412;-77